Severnoe, Russia
Current Conditions -  °F | °C
As of 7:30 AM on Wednesday 22 Oct 2014 (Local Time) from UNNT Reporting Station
Overcast Overcast  
Wind Chill: 21°   Ceiling: 2600
Heat Index: 30°   Visibility: 6mi
Dew Point: 23°   Wind: 11mph
Humidity: 75%   Direction: 230°SW
Pressure: 30.12"   Gusts: NA
Location:  56.35°N, 78.35°E
Report Text: UNNT 220030Z 23005MPS 9999 OVC026CB M01/M05 Q1020 2509007016090070 NOSIG RMK QFE755/1007
Loading
Personal Weather Stations






























Interactive Weather Map
Tropical Storm Tracking
New forecast layout! Learn more

10-Day Weather Forecast

Advertisements
Track Severe Weather on mobile